sensor_id;sensor_type;location;lat;lon;timestamp;pressure;altitude;pressure_sealevel;temperature;humidity
62928;BME280;51070;52.236;-0.892;2024-02-21T00:01:22;100997.77;;;9.61;100.00
62928;BME280;51070;52.236;-0.892;2024-02-21T00:03:48;100995.51;;;9.61;100.00
62928;BME280;51070;52.236;-0.892;2024-02-21T00:06:13;100984.42;;;9.60;100.00
62928;BME280;51070;52.236;-0.892;2024-02-21T00:08:39;100971.33;;;9.60;100.00
62928;BME280;51070;52.236;-0.892;2024-02-21T00:11:04;100974.80;;;9.61;100.00
62928;BME280;51070;52.236;-0.892;2024-02-21T00:13:30;100972.53;;;9.60;100.00
62928;BME280;51070;52.236;-0.892;2024-02-21T00:15:55;100969.19;;;9.58;100.00
62928;BME280;51070;52.236;-0.892;2024-02-21T00:18:21;100964.78;;;9.56;100.00
62928;BME280;51070;52.236;-0.892;2024-02-21T00:20:47;100962.60;;;9.53;100.00
62928;BME280;51070;52.236;-0.892;2024-02-21T00:23:12;100961.64;;;9.51;100.00
62928;BME280;51070;52.236;-0.892;2024-02-21T00:25:38;100957.09;;;9.49;100.00
62928;BME280;51070;52.236;-0.892;2024-02-21T00:28:04;100940.94;;;9.47;100.00
62928;BME280;51070;52.236;-0.892;2024-02-21T00:30:31;100931.70;;;9.45;100.00
62928;BME280;51070;52.236;-0.892;2024-02-21T00:32:56;100928.92;;;9.44;100.00
62928;BME280;51070;52.236;-0.892;2024-02-21T00:35:22;100926.92;;;9.42;100.00
62928;BME280;51070;52.236;-0.892;2024-02-21T00:37:47;100924.08;;;9.39;100.00
62928;BME280;51070;52.236;-0.892;2024-02-21T00:40:12;100920.55;;;9.37;100.00
62928;BME280;51070;52.236;-0.892;2024-02-21T00:42:41;100907.66;;;9.34;100.00
62928;BME280;51070;52.236;-0.892;2024-02-21T00:45:07;100905.52;;;9.32;100.00
62928;BME280;51070;52.236;-0.892;2024-02-21T00:47:33;100913.03;;;9.30;100.00
62928;BME280;51070;52.236;-0.892;2024-02-21T00:49:58;100912.60;;;9.28;100.00
62928;BME280;51070;52.236;-0.892;2024-02-21T00:52:24;100912.51;;;9.26;100.00
62928;BME280;51070;52.236;-0.892;2024-02-21T00:54:49;100916.27;;;9.25;100.00
62928;BME280;51070;52.236;-0.892;2024-02-21T00:57:15;100911.38;;;9.24;100.00
62928;BME280;51070;52.236;-0.892;2024-02-21T00:59:40;100907.36;;;9.22;100.00
62928;BME280;51070;52.236;-0.892;2024-02-21T01:02:07;100908.83;;;9.20;100.00
62928;BME280;51070;52.236;-0.892;2024-02-21T01:04:32;100911.21;;;9.19;100.00
62928;BME280;51070;52.236;-0.892;2024-02-21T01:06:57;100907.21;;;9.19;100.00
62928;BME280;51070;52.236;-0.892;2024-02-21T01:09:23;100905.83;;;9.19;100.00
62928;BME280;51070;52.236;-0.892;2024-02-21T01:11:48;100906.89;;;9.19;100.00
62928;BME280;51070;52.236;-0.892;2024-02-21T01:14:14;100901.87;;;9.19;100.00
62928;BME280;51070;52.236;-0.892;2024-02-21T01:16:39;100897.23;;;9.19;100.00
62928;BME280;51070;52.236;-0.892;2024-02-21T01:19:05;100888.94;;;9.19;100.00
62928;BME280;51070;52.236;-0.892;2024-02-21T01:21:30;100884.39;;;9.17;100.00
62928;BME280;51070;52.236;-0.892;2024-02-21T01:23:56;100877.77;;;9.16;100.00
62928;BME280;51070;52.236;-0.892;2024-02-21T01:26:21;100876.69;;;9.15;100.00
62928;BME280;51070;52.236;-0.892;2024-02-21T01:28:46;100869.55;;;9.13;100.00
62928;BME280;51070;52.236;-0.892;2024-02-21T01:31:12;100863.30;;;9.12;100.00
62928;BME280;51070;52.236;-0.892;2024-02-21T01:33:38;100860.86;;;9.11;100.00
62928;BME280;51070;52.236;-0.892;2024-02-21T01:36:04;100852.58;;;9.11;100.00
62928;BME280;51070;52.236;-0.892;2024-02-21T01:38:34;100847.41;;;9.11;100.00
62928;BME280;51070;52.236;-0.892;2024-02-21T01:41:00;100839.73;;;9.09;100.00
62928;BME280;51070;52.236;-0.892;2024-02-21T01:43:26;100828.67;;;9.08;100.00
62928;BME280;51070;52.236;-0.892;2024-02-21T01:46:00;100826.21;;;9.07;100.00
62928;BME280;51070;52.236;-0.892;2024-02-21T01:48:26;100819.94;;;9.05;100.00
62928;BME280;51070;52.236;-0.892;2024-02-21T01:50:54;100817.27;;;9.03;100.00
62928;BME280;51070;52.236;-0.892;2024-02-21T01:53:22;100812.40;;;9.02;100.00
62928;BME280;51070;52.236;-0.892;2024-02-21T01:55:48;100799.20;;;9.00;100.00
62928;BME280;51070;52.236;-0.892;2024-02-21T01:58:15;100788.58;;;8.97;100.00
62928;BME280;51070;52.236;-0.892;2024-02-21T02:00:45;100780.08;;;8.95;100.00
62928;BME280;51070;52.236;-0.892;2024-02-21T02:03:11;100771.34;;;8.93;100.00
62928;BME280;51070;52.236;-0.892;2024-02-21T02:05:49;100763.03;;;8.92;100.00
62928;BME280;51070;52.236;-0.892;2024-02-21T02:08:17;100755.22;;;8.90;100.00
62928;BME280;51070;52.236;-0.892;2024-02-21T02:10:43;100752.80;;;8.90;100.00
62928;BME280;51070;52.236;-0.892;2024-02-21T02:13:09;100749.99;;;8.89;100.00
62928;BME280;51070;52.236;-0.892;2024-02-21T02:15:39;100745.79;;;8.87;100.00
62928;BME280;51070;52.236;-0.892;2024-02-21T02:18:05;100734.05;;;8.87;100.00
62928;BME280;51070;52.236;-0.892;2024-02-21T02:20:31;100733.18;;;8.86;100.00
62928;BME280;51070;52.236;-0.892;2024-02-21T02:22:59;100733.33;;;8.86;100.00
62928;BME280;51070;52.236;-0.892;2024-02-21T02:25:25;100729.23;;;8.87;100.00
62928;BME280;51070;52.236;-0.892;2024-02-21T02:27:51;100729.09;;;8.88;100.00
62928;BME280;51070;52.236;-0.892;2024-02-21T02:30:17;100732.20;;;8.88;100.00
62928;BME280;51070;52.236;-0.892;2024-02-21T02:32:44;100729.14;;;8.89;100.00
62928;BME280;51070;52.236;-0.892;2024-02-21T02:35:11;100726.49;;;8.87;100.00
62928;BME280;51070;52.236;-0.892;2024-02-21T02:37:36;100725.50;;;8.88;100.00
62928;BME280;51070;52.236;-0.892;2024-02-21T02:40:05;100720.84;;;8.88;100.00
62928;BME280;51070;52.236;-0.892;2024-02-21T02:42:30;100715.23;;;8.90;100.00
62928;BME280;51070;52.236;-0.892;2024-02-21T02:44:56;100712.70;;;8.92;100.00
62928;BME280;51070;52.236;-0.892;2024-02-21T02:47:22;100704.67;;;8.93;100.00
62928;BME280;51070;52.236;-0.892;2024-02-21T02:49:48;100698.21;;;8.95;100.00
62928;BME280;51070;52.236;-0.892;2024-02-21T02:52:17;100695.86;;;8.97;100.00
62928;BME280;51070;52.236;-0.892;2024-02-21T02:54:43;100684.06;;;9.00;100.00
62928;BME280;51070;52.236;-0.892;2024-02-21T02:57:09;100674.98;;;9.01;100.00
62928;BME280;51070;52.236;-0.892;2024-02-21T02:59:35;100667.60;;;9.02;100.00
62928;BME280;51070;52.236;-0.892;2024-02-21T03:02:00;100656.25;;;9.03;100.00
62928;BME280;51070;52.236;-0.892;2024-02-21T03:04:26;100650.73;;;9.03;100.00
62928;BME280;51070;52.236;-0.892;2024-02-21T03:06:51;100643.70;;;9.04;100.00
62928;BME280;51070;52.236;-0.892;2024-02-21T03:09:17;100633.91;;;9.04;100.00
62928;BME280;51070;52.236;-0.892;2024-02-21T03:11:43;100631.47;;;9.04;100.00
62928;BME280;51070;52.236;-0.892;2024-02-21T03:14:10;100629.38;;;9.03;100.00
62928;BME280;51070;52.236;-0.892;2024-02-21T03:16:36;100625.56;;;9.03;100.00
62928;BME280;51070;52.236;-0.892;2024-02-21T03:19:01;100625.73;;;9.03;100.00
62928;BME280;51070;52.236;-0.892;2024-02-21T03:21:26;100613.15;;;9.02;100.00
62928;BME280;51070;52.236;-0.892;2024-02-21T03:23:52;100605.73;;;9.02;100.00
62928;BME280;51070;52.236;-0.892;2024-02-21T03:26:17;100605.88;;;9.01;100.00
62928;BME280;51070;52.236;-0.892;2024-02-21T03:28:44;100598.62;;;9.01;100.00
62928;BME280;51070;52.236;-0.892;2024-02-21T03:31:12;100591.80;;;8.98;100.00
62928;BME280;51070;52.236;-0.892;2024-02-21T03:33:40;100586.73;;;8.97;100.00
62928;BME280;51070;52.236;-0.892;2024-02-21T03:36:07;100587.59;;;8.96;100.00
62928;BME280;51070;52.236;-0.892;2024-02-21T03:38:37;100582.02;;;8.95;100.00
62928;BME280;51070;52.236;-0.892;2024-02-21T03:41:03;100582.00;;;8.94;100.00
62928;BME280;51070;52.236;-0.892;2024-02-21T03:43:28;100575.94;;;8.93;100.00
62928;BME280;51070;52.236;-0.892;2024-02-21T03:45:54;100570.92;;;8.93;100.00
62928;BME280;51070;52.236;-0.892;2024-02-21T03:48:19;100561.63;;;8.93;100.00
62928;BME280;51070;52.236;-0.892;2024-02-21T03:50:44;100559.90;;;8.93;100.00
62928;BME280;51070;52.236;-0.892;2024-02-21T03:53:10;100557.17;;;8.94;100.00
62928;BME280;51070;52.236;-0.892;2024-02-21T03:55:35;100543.73;;;8.94;100.00
62928;BME280;51070;52.236;-0.892;2024-02-21T03:58:00;100530.96;;;8.94;100.00
62928;BME280;51070;52.236;-0.892;2024-02-21T04:00:26;100527.69;;;8.94;100.00
62928;BME280;51070;52.236;-0.892;2024-02-21T04:02:52;100526.17;;;8.94;100.00
62928;BME280;51070;52.236;-0.892;2024-02-21T04:05:17;100524.78;;;8.94;100.00
62928;BME280;51070;52.236;-0.892;2024-02-21T04:07:43;100523.56;;;8.94;100.00
62928;BME280;51070;52.236;-0.892;2024-02-21T04:10:08;100514.76;;;8.94;100.00
62928;BME280;51070;52.236;-0.892;2024-02-21T04:12:34;100509.91;;;8.93;100.00
62928;BME280;51070;52.236;-0.892;2024-02-21T04:14:59;100513.48;;;8.92;100.00
62928;BME280;51070;52.236;-0.892;2024-02-21T04:17:25;100517.25;;;8.91;100.00
62928;BME280;51070;52.236;-0.892;2024-02-21T04:20:02;100499.66;;;8.90;100.00
62928;BME280;51070;52.236;-0.892;2024-02-21T04:22:31;100498.10;;;8.90;100.00
62928;BME280;51070;52.236;-0.892;2024-02-21T04:24:57;100489.93;;;8.88;100.00
62928;BME280;51070;52.236;-0.892;2024-02-21T04:27:23;100484.55;;;8.87;100.00
62928;BME280;51070;52.236;-0.892;2024-02-21T04:29:48;100486.55;;;8.84;100.00
62928;BME280;51070;52.236;-0.892;2024-02-21T04:32:13;100482.34;;;8.83;100.00
62928;BME280;51070;52.236;-0.892;2024-02-21T04:34:41;100473.63;;;8.81;100.00
62928;BME280;51070;52.236;-0.892;2024-02-21T04:37:06;100456.65;;;8.78;100.00
62928;BME280;51070;52.236;-0.892;2024-02-21T04:39:32;100443.99;;;8.75;100.00
62928;BME280;51070;52.236;-0.892;2024-02-21T04:41:58;100431.69;;;8.73;100.00
62928;BME280;51070;52.236;-0.892;2024-02-21T04:44:23;100429.16;;;8.70;100.00
62928;BME280;51070;52.236;-0.892;2024-02-21T04:46:49;100425.68;;;8.69;100.00
62928;BME280;51070;52.236;-0.892;2024-02-21T04:49:14;100422.22;;;8.68;100.00
62928;BME280;51070;52.236;-0.892;2024-02-21T04:51:40;100421.64;;;8.67;100.00
62928;BME280;51070;52.236;-0.892;2024-02-21T04:54:06;100425.06;;;8.66;100.00
62928;BME280;51070;52.236;-0.892;2024-02-21T04:56:31;100432.39;;;8.64;100.00
62928;BME280;51070;52.236;-0.892;2024-02-21T04:58:57;100425.29;;;8.63;100.00
62928;BME280;51070;52.236;-0.892;2024-02-21T05:01:23;100420.63;;;8.62;100.00
62928;BME280;51070;52.236;-0.892;2024-02-21T05:03:48;100412.14;;;8.61;100.00
62928;BME280;51070;52.236;-0.892;2024-02-21T05:06:14;100404.30;;;8.59;100.00
62928;BME280;51070;52.236;-0.892;2024-02-21T05:08:40;100396.20;;;8.58;100.00
62928;BME280;51070;52.236;-0.892;2024-02-21T05:11:05;100381.69;;;8.57;100.00
62928;BME280;51070;52.236;-0.892;2024-02-21T05:13:31;100371.84;;;8.56;100.00
62928;BME280;51070;52.236;-0.892;2024-02-21T05:15:56;100363.83;;;8.55;100.00
62928;BME280;51070;52.236;-0.892;2024-02-21T05:18:22;100357.77;;;8.53;100.00
62928;BME280;51070;52.236;-0.892;2024-02-21T05:20:47;100342.58;;;8.52;100.00
62928;BME280;51070;52.236;-0.892;2024-02-21T05:23:12;100329.95;;;8.50;100.00
62928;BME280;51070;52.236;-0.892;2024-02-21T05:25:38;100319.04;;;8.49;100.00
62928;BME280;51070;52.236;-0.892;2024-02-21T05:28:03;100311.61;;;8.48;100.00
62928;BME280;51070;52.236;-0.892;2024-02-21T05:30:31;100307.62;;;8.47;100.00
62928;BME280;51070;52.236;-0.892;2024-02-21T05:32:56;100302.19;;;8.45;100.00
62928;BME280;51070;52.236;-0.892;2024-02-21T05:35:29;100298.69;;;8.43;100.00
62928;BME280;51070;52.236;-0.892;2024-02-21T05:37:54;100295.39;;;8.41;100.00
62928;BME280;51070;52.236;-0.892;2024-02-21T05:40:20;100295.23;;;8.42;100.00
62928;BME280;51070;52.236;-0.892;2024-02-21T05:42:45;100291.62;;;8.42;100.00
62928;BME280;51070;52.236;-0.892;2024-02-21T05:45:13;100279.42;;;8.43;100.00
62928;BME280;51070;52.236;-0.892;2024-02-21T05:47:41;100266.89;;;8.44;100.00
62928;BME280;51070;52.236;-0.892;2024-02-21T05:50:07;100260.73;;;8.45;100.00
62928;BME280;51070;52.236;-0.892;2024-02-21T05:52:34;100253.55;;;8.48;100.00
62928;BME280;51070;52.236;-0.892;2024-02-21T05:54:59;100247.22;;;8.48;100.00
62928;BME280;51070;52.236;-0.892;2024-02-21T05:57:24;100242.14;;;8.51;100.00
62928;BME280;51070;52.236;-0.892;2024-02-21T05:59:50;100240.45;;;8.52;100.00
62928;BME280;51070;52.236;-0.892;2024-02-21T06:02:15;100232.55;;;8.52;100.00
62928;BME280;51070;52.236;-0.892;2024-02-21T06:04:41;100223.10;;;8.53;100.00
62928;BME280;51070;52.236;-0.892;2024-02-21T06:07:08;100209.17;;;8.54;100.00
62928;BME280;51070;52.236;-0.892;2024-02-21T06:09:34;100205.06;;;8.55;100.00
62928;BME280;51070;52.236;-0.892;2024-02-21T06:11:59;100200.08;;;8.55;100.00
62928;BME280;51070;52.236;-0.892;2024-02-21T06:14:26;100188.36;;;8.55;100.00
62928;BME280;51070;52.236;-0.892;2024-02-21T06:16:51;100182.52;;;8.55;100.00
62928;BME280;51070;52.236;-0.892;2024-02-21T06:19:17;100171.85;;;8.55;100.00
62928;BME280;51070;52.236;-0.892;2024-02-21T06:21:42;100165.50;;;8.56;100.00
62928;BME280;51070;52.236;-0.892;2024-02-21T06:24:08;100156.91;;;8.57;100.00
62928;BME280;51070;52.236;-0.892;2024-02-21T06:26:33;100156.39;;;8.57;100.00
62928;BME280;51070;52.236;-0.892;2024-02-21T06:28:58;100148.29;;;8.56;100.00
62928;BME280;51070;52.236;-0.892;2024-02-21T06:31:27;100130.36;;;8.56;100.00
62928;BME280;51070;52.236;-0.892;2024-02-21T06:33:53;100120.36;;;8.56;100.00
62928;BME280;51070;52.236;-0.892;2024-02-21T06:36:19;100114.81;;;8.55;100.00
62928;BME280;51070;52.236;-0.892;2024-02-21T06:38:44;100113.58;;;8.54;100.00
62928;BME280;51070;52.236;-0.892;2024-02-21T06:41:17;100110.65;;;8.54;100.00
62928;BME280;51070;52.236;-0.892;2024-02-21T06:43:46;100104.77;;;8.53;100.00
62928;BME280;51070;52.236;-0.892;2024-02-21T06:46:23;100091.14;;;8.52;100.00
62928;BME280;51070;52.236;-0.892;2024-02-21T06:48:49;100083.21;;;8.51;100.00
62928;BME280;51070;52.236;-0.892;2024-02-21T06:51:14;100081.98;;;8.50;100.00
62928;BME280;51070;52.236;-0.892;2024-02-21T06:53:40;100076.09;;;8.50;100.00
62928;BME280;51070;52.236;-0.892;2024-02-21T06:56:06;100066.63;;;8.50;100.00
62928;BME280;51070;52.236;-0.892;2024-02-21T06:58:31;100066.05;;;8.48;100.00
62928;BME280;51070;52.236;-0.892;2024-02-21T07:00:57;100057.45;;;8.48;100.00
62928;BME280;51070;52.236;-0.892;2024-02-21T07:03:22;100042.44;;;8.47;100.00
62928;BME280;51070;52.236;-0.892;2024-02-21T07:05:50;100032.61;;;8.46;100.00
62928;BME280;51070;52.236;-0.892;2024-02-21T07:08:15;100023.27;;;8.46;100.00
62928;BME280;51070;52.236;-0.892;2024-02-21T07:10:41;100027.06;;;8.45;100.00
62928;BME280;51070;52.236;-0.892;2024-02-21T07:13:06;100020.66;;;8.45;100.00
62928;BME280;51070;52.236;-0.892;2024-02-21T07:15:31;100012.04;;;8.44;100.00
62928;BME280;51070;52.236;-0.892;2024-02-21T07:17:58;99995.50;;;8.44;100.00
62928;BME280;51070;52.236;-0.892;2024-02-21T07:20:24;99988.12;;;8.45;100.00
62928;BME280;51070;52.236;-0.892;2024-02-21T07:22:50;99985.05;;;8.45;100.00
62928;BME280;51070;52.236;-0.892;2024-02-21T07:25:15;99980.77;;;8.46;100.00
62928;BME280;51070;52.236;-0.892;2024-02-21T07:27:41;99975.96;;;8.47;100.00
62928;BME280;51070;52.236;-0.892;2024-02-21T07:30:08;99976.65;;;8.46;100.00
62928;BME280;51070;52.236;-0.892;2024-02-21T07:32:33;99969.24;;;8.46;100.00
62928;BME280;51070;52.236;-0.892;2024-02-21T07:34:58;99955.29;;;8.47;100.00
62928;BME280;51070;52.236;-0.892;2024-02-21T07:37:24;99948.09;;;8.48;100.00
62928;BME280;51070;52.236;-0.892;2024-02-21T07:39:49;99941.41;;;8.49;100.00
62928;BME280;51070;52.236;-0.892;2024-02-21T07:42:15;99935.59;;;8.50;100.00
62928;BME280;51070;52.236;-0.892;2024-02-21T07:44:41;99925.66;;;8.52;100.00
62928;BME280;51070;52.236;-0.892;2024-02-21T07:47:06;99920.70;;;8.53;100.00
62928;BME280;51070;52.236;-0.892;2024-02-21T07:49:32;99909.89;;;8.55;100.00
62928;BME280;51070;52.236;-0.892;2024-02-21T07:52:00;99901.16;;;8.57;100.00
62928;BME280;51070;52.236;-0.892;2024-02-21T07:54:26;99894.66;;;8.58;100.00
62928;BME280;51070;52.236;-0.892;2024-02-21T07:56:51;99895.70;;;8.58;100.00
62928;BME280;51070;52.236;-0.892;2024-02-21T07:59:17;99892.45;;;8.59;100.00
62928;BME280;51070;52.236;-0.892;2024-02-21T08:01:43;99889.77;;;8.61;100.00
62928;BME280;51070;52.236;-0.892;2024-02-21T08:04:09;99879.81;;;8.63;100.00
62928;BME280;51070;52.236;-0.892;2024-02-21T08:06:35;99878.77;;;8.64;100.00
62928;BME280;51070;52.236;-0.892;2024-02-21T08:09:00;99874.70;;;8.66;100.00
62928;BME280;51070;52.236;-0.892;2024-02-21T08:11:26;99874.90;;;8.66;100.00
62928;BME280;51070;52.236;-0.892;2024-02-21T08:13:51;99863.70;;;8.66;100.00
62928;BME280;51070;52.236;-0.892;2024-02-21T08:16:17;99859.40;;;8.66;100.00
62928;BME280;51070;52.236;-0.892;2024-02-21T08:18:44;99856.18;;;8.68;100.00
62928;BME280;51070;52.236;-0.892;2024-02-21T08:21:09;99848.29;;;8.70;100.00
62928;BME280;51070;52.236;-0.892;2024-02-21T08:23:35;99835.73;;;8.71;100.00
62928;BME280;51070;52.236;-0.892;2024-02-21T08:26:03;99840.08;;;8.72;100.00
62928;BME280;51070;52.236;-0.892;2024-02-21T08:28:29;99836.66;;;8.73;100.00
62928;BME280;51070;52.236;-0.892;2024-02-21T08:30:54;99829.80;;;8.74;100.00
62928;BME280;51070;52.236;-0.892;2024-02-21T08:33:20;99823.96;;;8.75;100.00
62928;BME280;51070;52.236;-0.892;2024-02-21T08:35:50;99822.27;;;8.76;100.00
62928;BME280;51070;52.236;-0.892;2024-02-21T08:38:15;99816.64;;;8.78;100.00
62928;BME280;51070;52.236;-0.892;2024-02-21T08:40:41;99809.09;;;8.79;100.00
62928;BME280;51070;52.236;-0.892;2024-02-21T08:43:06;99802.73;;;8.81;100.00
62928;BME280;51070;52.236;-0.892;2024-02-21T08:45:32;99792.12;;;8.83;100.00
62928;BME280;51070;52.236;-0.892;2024-02-21T08:47:57;99786.83;;;8.85;100.00
62928;BME280;51070;52.236;-0.892;2024-02-21T08:50:23;99779.13;;;8.88;100.00
62928;BME280;51070;52.236;-0.892;2024-02-21T08:52:48;99771.94;;;8.89;100.00
62928;BME280;51070;52.236;-0.892;2024-02-21T08:55:14;99769.57;;;8.91;100.00
62928;BME280;51070;52.236;-0.892;2024-02-21T08:57:39;99755.80;;;8.92;100.00
62928;BME280;51070;52.236;-0.892;2024-02-21T09:00:05;99741.00;;;8.93;100.00
62928;BME280;51070;52.236;-0.892;2024-02-21T09:02:40;99737.72;;;8.93;100.00
62928;BME280;51070;52.236;-0.892;2024-02-21T09:05:08;99730.00;;;8.94;100.00
62928;BME280;51070;52.236;-0.892;2024-02-21T09:07:34;99724.35;;;8.95;100.00
62928;BME280;51070;52.236;-0.892;2024-02-21T09:09:59;99718.84;;;8.96;100.00
62928;BME280;51070;52.236;-0.892;2024-02-21T09:12:26;99715.40;;;8.96;100.00
62928;BME280;51070;52.236;-0.892;2024-02-21T09:14:51;99712.65;;;8.97;100.00
62928;BME280;51070;52.236;-0.892;2024-02-21T09:17:17;99711.46;;;8.98;100.00
62928;BME280;51070;52.236;-0.892;2024-02-21T09:19:44;99695.77;;;8.97;100.00
62928;BME280;51070;52.236;-0.892;2024-02-21T09:22:09;99686.29;;;8.97;100.00
62928;BME280;51070;52.236;-0.892;2024-02-21T09:24:35;99684.39;;;8.97;100.00
62928;BME280;51070;52.236;-0.892;2024-02-21T09:27:00;99681.12;;;8.97;100.00
62928;BME280;51070;52.236;-0.892;2024-02-21T09:29:26;99663.37;;;8.96;100.00
62928;BME280;51070;52.236;-0.892;2024-02-21T09:31:51;99661.66;;;8.97;100.00
62928;BME280;51070;52.236;-0.892;2024-02-21T09:34:17;99659.10;;;8.98;100.00
62928;BME280;51070;52.236;-0.892;2024-02-21T09:36:43;99657.20;;;8.98;100.00
62928;BME280;51070;52.236;-0.892;2024-02-21T09:39:10;99642.23;;;8.99;100.00
62928;BME280;51070;52.236;-0.892;2024-02-21T09:41:45;99635.13;;;8.98;100.00
62928;BME280;51070;52.236;-0.892;2024-02-21T09:44:13;99630.16;;;8.98;100.00
62928;BME280;51070;52.236;-0.892;2024-02-21T09:46:57;99621.86;;;8.98;100.00
62928;BME280;51070;52.236;-0.892;2024-02-21T09:49:33;99616.21;;;8.99;100.00
62928;BME280;51070;52.236;-0.892;2024-02-21T09:52:01;99601.73;;;8.99;100.00
62928;BME280;51070;52.236;-0.892;2024-02-21T09:54:30;99607.08;;;8.99;100.00
62928;BME280;51070;52.236;-0.892;2024-02-21T09:57:00;99592.26;;;8.99;100.00
62928;BME280;51070;52.236;-0.892;2024-02-21T09:59:28;99587.98;;;9.01;100.00
62928;BME280;51070;52.236;-0.892;2024-02-21T10:01:54;99586.12;;;9.02;100.00
62928;BME280;51070;52.236;-0.892;2024-02-21T10:04:21;99575.61;;;9.02;100.00
62928;BME280;51070;52.236;-0.892;2024-02-21T10:06:46;99559.08;;;9.03;100.00
62928;BME280;51070;52.236;-0.892;2024-02-21T10:11:49;99557.21;;;9.04;100.00
62928;BME280;51070;52.236;-0.892;2024-02-21T10:14:15;99546.20;;;9.05;100.00
62928;BME280;51070;52.236;-0.892;2024-02-21T10:16:41;99535.05;;;9.07;100.00
62928;BME280;51070;52.236;-0.892;2024-02-21T10:19:18;99530.39;;;9.06;100.00
62928;BME280;51070;52.236;-0.892;2024-02-21T10:21:44;99515.34;;;9.04;100.00
62928;BME280;51070;52.236;-0.892;2024-02-21T10:24:11;99514.68;;;9.06;100.00
62928;BME280;51070;52.236;-0.892;2024-02-21T10:26:37;99506.53;;;9.03;100.00
62928;BME280;51070;52.236;-0.892;2024-02-21T10:29:03;99502.20;;;9.02;100.00
62928;BME280;51070;52.236;-0.892;2024-02-21T10:31:29;99497.20;;;9.02;100.00
62928;BME280;51070;52.236;-0.892;2024-02-21T10:33:56;99486.89;;;9.04;100.00
62928;BME280;51070;52.236;-0.892;2024-02-21T10:36:21;99475.89;;;9.05;100.00
62928;BME280;51070;52.236;-0.892;2024-02-21T10:38:47;99471.79;;;9.07;100.00
62928;BME280;51070;52.236;-0.892;2024-02-21T10:41:14;99457.70;;;9.09;100.00
62928;BME280;51070;52.236;-0.892;2024-02-21T10:43:41;99462.20;;;9.10;100.00
62928;BME280;51070;52.236;-0.892;2024-02-21T10:46:09;99441.73;;;9.13;100.00
62928;BME280;51070;52.236;-0.892;2024-02-21T10:48:42;99439.52;;;9.14;100.00
62928;BME280;51070;52.236;-0.892;2024-02-21T10:58:37;99400.70;;;9.21;100.00
62928;BME280;51070;52.236;-0.892;2024-02-21T11:01:07;99401.41;;;9.23;100.00
62928;BME280;51070;52.236;-0.892;2024-02-21T11:03:33;99390.91;;;9.24;100.00
62928;BME280;51070;52.236;-0.892;2024-02-21T11:05:59;99383.22;;;9.29;100.00
62928;BME280;51070;52.236;-0.892;2024-02-21T11:08:25;99389.27;;;9.30;100.00
62928;BME280;51070;52.236;-0.892;2024-02-21T11:10:56;99378.58;;;9.30;100.00
62928;BME280;51070;52.236;-0.892;2024-02-21T11:13:30;99375.33;;;9.31;100.00
62928;BME280;51070;52.236;-0.892;2024-02-21T11:16:09;99370.20;;;9.33;100.00
62928;BME280;51070;52.236;-0.892;2024-02-21T11:18:38;99367.30;;;9.36;100.00
62928;BME280;51070;52.236;-0.892;2024-02-21T11:21:04;99354.39;;;9.37;100.00
62928;BME280;51070;52.236;-0.892;2024-02-21T11:23:32;99352.36;;;9.39;100.00
62928;BME280;51070;52.236;-0.892;2024-02-21T11:26:10;99343.23;;;9.40;100.00
62928;BME280;51070;52.236;-0.892;2024-02-21T11:28:44;99334.50;;;9.44;100.00
62928;BME280;51070;52.236;-0.892;2024-02-21T11:31:13;99327.14;;;9.48;100.00
62928;BME280;51070;52.236;-0.892;2024-02-21T11:33:43;99315.67;;;9.54;100.00
62928;BME280;51070;52.236;-0.892;2024-02-21T11:36:09;99302.59;;;9.56;100.00
62928;BME280;51070;52.236;-0.892;2024-02-21T11:38:35;99305.23;;;9.60;100.00
62928;BME280;51070;52.236;-0.892;2024-02-21T11:41:01;99286.34;;;9.66;100.00
62928;BME280;51070;52.236;-0.892;2024-02-21T11:43:27;99279.87;;;9.73;100.00
62928;BME280;51070;52.236;-0.892;2024-02-21T11:46:00;99273.88;;;9.77;100.00
62928;BME280;51070;52.236;-0.892;2024-02-21T11:48:26;99287.07;;;9.83;100.00
62928;BME280;51070;52.236;-0.892;2024-02-21T11:50:53;99273.63;;;9.85;100.00
62928;BME280;51070;52.236;-0.892;2024-02-21T11:53:20;99261.08;;;9.88;100.00
62928;BME280;51070;52.236;-0.892;2024-02-21T11:55:46;99244.23;;;9.93;100.00
62928;BME280;51070;52.236;-0.892;2024-02-21T11:58:12;99247.68;;;9.94;100.00
62928;BME280;51070;52.236;-0.892;2024-02-21T12:00:37;99221.09;;;9.92;100.00
62928;BME280;51070;52.236;-0.892;2024-02-21T12:03:06;99218.17;;;9.94;100.00
62928;BME280;51070;52.236;-0.892;2024-02-21T12:05:33;99213.78;;;10.01;100.00
62928;BME280;51070;52.236;-0.892;2024-02-21T12:07:58;99209.13;;;10.02;100.00
62928;BME280;51070;52.236;-0.892;2024-02-21T12:10:26;99202.73;;;10.02;100.00
62928;BME280;51070;52.236;-0.892;2024-02-21T12:12:52;99192.86;;;9.99;100.00
62928;BME280;51070;52.236;-0.892;2024-02-21T12:15:20;99170.23;;;9.96;100.00
62928;BME280;51070;52.236;-0.892;2024-02-21T12:17:45;99164.33;;;9.94;100.00
62928;BME280;51070;52.236;-0.892;2024-02-21T12:20:11;99167.62;;;9.95;100.00
62928;BME280;51070;52.236;-0.892;2024-02-21T12:22:41;99162.44;;;9.93;100.00
62928;BME280;51070;52.236;-0.892;2024-02-21T12:25:17;99161.02;;;9.90;100.00
62928;BME280;51070;52.236;-0.892;2024-02-21T12:27:45;99147.08;;;9.92;100.00
62928;BME280;51070;52.236;-0.892;2024-02-21T12:30:11;99137.23;;;9.93;100.00
62928;BME280;51070;52.236;-0.892;2024-02-21T12:32:36;99124.30;;;9.93;100.00
62928;BME280;51070;52.236;-0.892;2024-02-21T12:35:03;99110.68;;;9.95;100.00
62928;BME280;51070;52.236;-0.892;2024-02-21T12:37:29;99104.15;;;9.98;100.00
62928;BME280;51070;52.236;-0.892;2024-02-21T12:39:54;99096.25;;;10.02;100.00
62928;BME280;51070;52.236;-0.892;2024-02-21T12:42:20;99098.87;;;10.06;100.00
62928;BME280;51070;52.236;-0.892;2024-02-21T12:44:45;99084.03;;;10.06;100.00
62928;BME280;51070;52.236;-0.892;2024-02-21T12:47:11;99070.93;;;10.08;100.00
62928;BME280;51070;52.236;-0.892;2024-02-21T12:49:37;99072.67;;;10.09;100.00